createdAt,value
2018-05-31T00:00:53.818Z,27.10
2018-05-31T00:03:23.717Z,27.10
2018-05-31T00:05:53.600Z,27.10
2018-05-31T00:08:23.506Z,27.10
2018-05-31T00:10:53.574Z,27.20
2018-05-31T00:13:23.518Z,27.20
2018-05-31T00:15:53.611Z,27.30
2018-05-31T00:18:23.630Z,27.30
2018-05-31T00:20:53.529Z,27.40
2018-05-31T00:23:25.055Z,27.40
2018-05-31T00:42:44.598Z,27.70
2018-05-31T01:27:38.904Z,29.30
2018-05-31T01:30:08.904Z,29.30
2018-05-31T01:32:38.705Z,29.40
2018-05-31T01:35:08.497Z,29.50
2018-05-31T01:37:38.289Z,29.60
2018-05-31T01:40:08.216Z,29.70
2018-05-31T01:42:38.023Z,29.70
2018-05-31T01:45:07.786Z,29.80
2018-05-31T01:47:37.609Z,29.80
2018-05-31T01:50:07.569Z,29.80
2018-05-31T01:52:37.345Z,29.80
2018-05-31T01:55:07.932Z,29.70
2018-05-31T01:57:37.761Z,29.70
2018-05-31T02:00:08.498Z,29.70
2018-05-31T02:02:38.280Z,29.80
2018-05-31T02:05:08.123Z,29.90
2018-05-31T02:07:37.949Z,29.90
2018-05-31T02:10:07.732Z,30.10
2018-05-31T02:12:37.688Z,30.20
2018-05-31T02:15:08.285Z,30.80
2018-05-31T02:17:38.089Z,30.80
2018-05-31T02:20:07.992Z,31.10
2018-05-31T02:22:37.829Z,31.30
2018-05-31T02:25:07.674Z,31.50
2018-05-31T02:27:38.270Z,32.00
2018-05-31T02:30:09.030Z,32.00
2018-05-31T02:32:39.900Z,32.40
2018-05-31T02:35:10.700Z,33.00
2018-05-31T02:37:40.529Z,33.00
2018-05-31T02:40:10.368Z,33.20
2018-05-31T02:42:40.217Z,33.40
2018-05-31T02:45:10.117Z,33.50
2018-05-31T02:47:40.007Z,33.80
2018-05-31T02:50:09.895Z,33.90
2018-05-31T02:52:39.852Z,33.80
2018-05-31T02:55:09.718Z,33.60
2018-05-31T02:57:39.958Z,33.60
2018-05-31T03:00:09.759Z,33.60
2018-05-31T03:02:40.654Z,33.30
2018-05-31T03:05:10.464Z,33.10
2018-05-31T03:07:40.460Z,32.80
2018-05-31T03:10:10.240Z,32.70
2018-05-31T03:12:40.009Z,32.80
2018-05-31T03:15:09.808Z,32.80
2018-05-31T03:17:39.636Z,32.60
2018-05-31T03:20:09.486Z,32.60
2018-05-31T03:22:39.324Z,32.50
2018-05-31T03:25:09.249Z,32.50
2018-05-31T03:27:39.130Z,32.50
2018-05-31T03:30:09.980Z,32.60
2018-05-31T03:32:39.821Z,32.50
2018-05-31T03:35:09.669Z,32.50
2018-05-31T03:37:40.913Z,32.60
2018-05-31T03:40:11.518Z,32.60
2018-05-31T03:42:41.325Z,32.60
2018-05-31T03:45:11.121Z,32.70
2018-05-31T03:47:40.912Z,32.90
2018-05-31T03:50:10.733Z,32.80
2018-05-31T03:52:41.481Z,32.70
2018-05-31T03:55:11.314Z,32.70
2018-05-31T03:57:41.103Z,32.90
2018-05-31T04:00:10.942Z,33.00
2018-05-31T04:02:40.814Z,33.10
2018-05-31T04:05:11.430Z,33.70
2018-05-31T04:07:41.293Z,33.70
2018-05-31T04:10:12.544Z,34.10
2018-05-31T04:12:42.389Z,34.40
2018-05-31T04:15:12.357Z,34.70
2018-05-31T04:17:42.376Z,35.00
2018-05-31T04:20:12.160Z,35.30
2018-05-31T04:22:42.045Z,35.50
2018-05-31T04:25:12.672Z,35.80
2018-05-31T04:27:43.273Z,36.00
2018-05-31T04:30:13.089Z,36.00
2018-05-31T04:32:43.474Z,35.90
2018-05-31T04:35:13.295Z,35.60
2018-05-31T04:37:44.086Z,34.90
2018-05-31T04:40:14.672Z,34.70
2018-05-31T04:42:44.525Z,34.70
2018-05-31T04:45:15.181Z,34.50
2018-05-31T04:47:45.025Z,34.50
2018-05-31T04:50:14.885Z,34.30
2018-05-31T04:52:44.759Z,34.00
2018-05-31T04:55:14.602Z,33.80
2018-05-31T04:57:44.419Z,34.00
2018-05-31T05:00:14.478Z,34.10
2018-05-31T05:02:44.356Z,34.50
2018-05-31T05:05:14.996Z,34.60
2018-05-31T05:07:45.652Z,34.70
2018-05-31T05:10:15.464Z,34.60
2018-05-31T05:12:45.413Z,34.60
2018-05-31T05:15:15.197Z,34.50
2018-05-31T05:17:44.990Z,34.30
2018-05-31T05:20:15.566Z,34.20
2018-05-31T05:22:45.553Z,34.20
2018-05-31T05:25:15.347Z,34.10
2018-05-31T05:27:45.197Z,34.00
2018-05-31T05:30:15.059Z,34.30
2018-05-31T05:32:44.951Z,34.40
2018-05-31T05:35:14.883Z,34.30
2018-05-31T05:37:45.543Z,33.90
2018-05-31T05:40:16.027Z,33.90
2018-05-31T05:42:46.090Z,33.70
2018-05-31T05:45:16.872Z,33.00
2018-05-31T05:47:48.124Z,33.00
2018-05-31T05:50:17.972Z,32.60
2018-05-31T05:52:47.836Z,32.10
2018-05-31T05:55:17.672Z,31.70
2018-05-31T05:57:48.284Z,31.00
2018-05-31T06:00:18.076Z,31.00
2018-05-31T06:02:47.905Z,30.80
2018-05-31T06:05:17.715Z,30.60
2018-05-31T06:07:47.681Z,30.40
2018-05-31T06:10:17.560Z,30.30
2018-05-31T06:12:47.455Z,30.20
2018-05-31T06:15:17.252Z,30.20
2018-05-31T06:17:47.049Z,30.20
2018-05-31T06:20:16.866Z,30.20
2018-05-31T06:22:46.637Z,30.30
2018-05-31T06:25:16.455Z,30.40
2018-05-31T06:27:47.079Z,30.40
2018-05-31T06:30:17.147Z,30.40
2018-05-31T06:32:47.016Z,30.50
2018-05-31T06:35:16.886Z,30.50
2018-05-31T06:37:46.730Z,30.50
2018-05-31T06:40:16.613Z,30.40
2018-05-31T06:42:46.452Z,30.40
2018-05-31T06:45:16.327Z,30.20
2018-05-31T06:47:46.181Z,30.00
2018-05-31T06:50:16.009Z,29.90
2018-05-31T06:52:46.094Z,29.80
2018-05-31T06:55:17.315Z,29.80
2018-05-31T06:57:48.954Z,29.80
2018-05-31T07:00:24.191Z,29.80
2018-05-31T07:02:57.397Z,29.80
2018-05-31T07:05:31.295Z,29.80
2018-05-31T07:08:01.343Z,29.80
2018-05-31T07:10:32.786Z,29.90
2018-05-31T07:13:02.760Z,30.10
2018-05-31T07:15:33.618Z,30.30
2018-05-31T07:18:03.846Z,30.30
2018-05-31T07:20:34.698Z,30.40
2018-05-31T07:23:04.593Z,30.40
2018-05-31T07:25:34.477Z,30.50
2018-05-31T07:28:04.448Z,30.50
2018-05-31T07:30:35.347Z,30.60
2018-05-31T07:33:05.762Z,30.60
2018-05-31T07:35:36.938Z,30.60
2018-05-31T07:38:06.799Z,30.60
2018-05-31T07:40:37.515Z,30.80
2018-05-31T07:43:07.420Z,30.70
2018-05-31T07:45:37.314Z,30.80
2018-05-31T07:48:07.218Z,30.90
2018-05-31T07:50:37.082Z,31.10
2018-05-31T07:53:09.260Z,31.20
2018-05-31T07:55:45.509Z,31.20
2018-05-31T07:58:17.771Z,31.20
2018-05-31T08:00:51.627Z,31.20
2018-05-31T08:03:23.419Z,31.30
2018-05-31T08:05:59.671Z,31.30
2018-05-31T08:08:32.766Z,31.50
2018-05-31T08:11:03.890Z,31.80
2018-05-31T08:13:38.197Z,32.10
2018-05-31T08:16:11.907Z,32.20
2018-05-31T08:21:28.883Z,32.40
2018-05-31T08:23:59.777Z,32.50
2018-05-31T08:26:29.683Z,32.60
2018-05-31T08:28:59.611Z,32.70
2018-05-31T08:31:29.556Z,32.60
2018-05-31T08:33:59.460Z,32.50
2018-05-31T08:36:29.441Z,32.40
2018-05-31T08:39:00.114Z,32.50
2018-05-31T08:41:29.945Z,32.50
2018-05-31T08:43:59.749Z,32.50
2018-05-31T08:46:29.573Z,32.50
2018-05-31T08:48:59.391Z,32.60
2018-05-31T08:51:29.436Z,32.50
2018-05-31T08:53:59.993Z,32.40
2018-05-31T08:56:29.795Z,32.40
2018-05-31T08:58:59.608Z,32.40
2018-05-31T09:01:29.399Z,32.30
2018-05-31T09:03:59.944Z,32.40
2018-05-31T09:06:29.732Z,32.40
2018-05-31T09:09:00.271Z,32.30
2018-05-31T09:11:30.817Z,32.20
2018-05-31T09:14:00.601Z,32.20
2018-05-31T09:16:31.177Z,32.10
2018-05-31T09:19:01.680Z,32.10
2018-05-31T09:21:31.462Z,32.10
2018-05-31T09:24:01.238Z,32.20
2018-05-31T09:26:31.035Z,32.20
2018-05-31T09:29:00.815Z,32.20
2018-05-31T09:31:31.548Z,32.00
2018-05-31T09:34:02.110Z,31.80
2018-05-31T09:36:32.793Z,31.80
2018-05-31T09:39:02.575Z,31.80
2018-05-31T09:41:32.376Z,31.80
2018-05-31T09:44:02.159Z,31.70
2018-05-31T09:46:31.977Z,31.70
2018-05-31T09:49:01.760Z,31.70
2018-05-31T09:51:32.297Z,31.60
2018-05-31T09:54:02.118Z,31.60
2018-05-31T09:56:31.936Z,31.60
2018-05-31T09:59:01.748Z,31.50
2018-05-31T10:01:31.623Z,31.50
2018-05-31T10:04:01.481Z,31.50
2018-05-31T10:06:31.597Z,31.40
2018-05-31T10:09:01.497Z,31.40
2018-05-31T10:11:31.479Z,31.30
2018-05-31T10:14:01.372Z,31.30
2018-05-31T10:16:31.272Z,31.20
2018-05-31T10:19:01.160Z,31.10
2018-05-31T10:21:31.071Z,31.00
2018-05-31T10:24:00.998Z,30.90
2018-05-31T10:26:31.770Z,30.90
2018-05-31T10:29:02.244Z,30.90
2018-05-31T10:31:33.251Z,30.80
2018-05-31T10:34:03.189Z,30.70
2018-05-31T10:36:34.039Z,30.60
2018-05-31T10:39:05.463Z,30.60
2018-05-31T10:41:36.356Z,30.40
2018-05-31T10:44:06.594Z,30.40
2018-05-31T10:46:36.747Z,30.30
2018-05-31T10:49:07.702Z,30.30
2018-05-31T10:54:13.393Z,30.10
2018-05-31T10:56:47.501Z,30.00
2018-05-31T10:59:18.425Z,29.90
2018-05-31T11:01:49.396Z,29.90
2018-05-31T11:04:21.764Z,29.90
2018-05-31T11:06:51.758Z,29.70
2018-05-31T11:09:22.997Z,29.60
2018-05-31T11:11:55.387Z,29.50
2018-05-31T11:14:26.369Z,29.50
2018-05-31T11:16:57.928Z,29.50
2018-05-31T11:19:35.672Z,29.40
2018-05-31T11:22:13.206Z,29.40
2018-05-31T11:24:47.001Z,29.30
2018-05-31T11:27:24.479Z,29.30
2018-05-31T11:29:55.847Z,29.20
2018-05-31T11:32:28.287Z,29.20
2018-05-31T11:34:58.493Z,29.10
2018-05-31T11:37:29.747Z,29.10
2018-05-31T11:42:41.048Z,29.00
2018-05-31T11:45:12.201Z,29.00
2018-05-31T11:47:42.254Z,29.00
2018-05-31T11:50:18.396Z,28.90
2018-05-31T11:52:53.623Z,28.90
2018-05-31T11:55:23.969Z,29.00
2018-05-31T11:57:54.170Z,28.90
2018-05-31T12:00:31.776Z,28.90
2018-05-31T15:21:17.538Z,28.10
2018-05-31T15:23:47.304Z,28.00
2018-05-31T15:26:18.359Z,28.00
2018-05-31T15:28:48.133Z,28.00
2018-05-31T15:31:17.905Z,28.00
2018-05-31T15:33:48.486Z,28.00
2018-05-31T15:36:18.288Z,28.00
2018-05-31T15:38:48.090Z,28.00
2018-05-31T15:41:17.881Z,28.00
2018-05-31T15:43:47.657Z,28.00
2018-05-31T15:46:17.470Z,27.90
2018-05-31T15:48:47.273Z,27.90
2018-05-31T15:51:17.076Z,27.90
2018-05-31T15:53:46.832Z,27.90
2018-05-31T15:56:17.381Z,27.80
2018-05-31T15:58:47.187Z,27.70
2018-05-31T16:01:16.989Z,27.70
2018-05-31T16:03:46.740Z,27.60
2018-05-31T16:06:16.548Z,27.60
2018-05-31T16:08:46.349Z,27.50
2018-05-31T16:11:16.140Z,27.50
2018-05-31T16:13:45.921Z,27.40
2018-05-31T16:16:16.494Z,27.40
2018-05-31T16:18:46.278Z,27.40
2018-05-31T16:21:16.842Z,27.40
2018-05-31T16:23:46.615Z,27.40
2018-05-31T16:26:17.174Z,27.40
2018-05-31T16:28:46.957Z,27.40
2018-05-31T16:31:17.507Z,27.40
2018-05-31T16:33:47.316Z,27.40
2018-05-31T16:36:17.128Z,27.40
2018-05-31T16:38:46.910Z,27.40
2018-05-31T16:41:17.467Z,27.30
2018-05-31T16:43:47.233Z,27.30
2018-05-31T16:46:17.026Z,27.30
2018-05-31T16:48:46.831Z,27.30
2018-05-31T16:51:16.642Z,27.30
2018-05-31T16:53:46.439Z,27.40
2018-05-31T16:56:16.198Z,27.30
2018-05-31T16:58:45.969Z,27.30
2018-05-31T17:01:15.773Z,27.30
2018-05-31T17:03:45.610Z,27.30
2018-05-31T17:06:15.417Z,27.30
2018-05-31T17:08:45.186Z,27.30
2018-05-31T17:11:14.993Z,27.30
2018-05-31T17:13:45.541Z,27.20
2018-05-31T17:16:15.349Z,27.20
2018-05-31T17:18:45.121Z,27.20
2018-05-31T17:21:15.672Z,27.10
2018-05-31T17:23:46.243Z,27.10
2018-05-31T17:26:16.944Z,27.10
2018-05-31T17:28:47.644Z,27.10
2018-05-31T17:31:17.422Z,27.10
2018-05-31T17:33:47.988Z,27.10
2018-05-31T17:36:17.783Z,27.10
2018-05-31T17:38:47.618Z,27.10
2018-05-31T17:41:18.246Z,27.10
2018-05-31T17:43:48.021Z,27.10
2018-05-31T17:46:18.482Z,27.10
2018-05-31T17:48:48.266Z,27.00
2018-05-31T17:51:18.233Z,27.10
2018-05-31T17:53:48.790Z,27.00
2018-05-31T17:56:18.646Z,27.00
2018-05-31T17:58:48.522Z,27.00
2018-05-31T18:01:18.273Z,27.00
2018-05-31T18:03:48.054Z,27.00
2018-05-31T18:06:17.822Z,27.00
2018-05-31T18:08:48.383Z,27.00
2018-05-31T18:11:18.190Z,27.00
2018-05-31T18:13:47.954Z,27.00
2018-05-31T18:16:18.513Z,27.00
2018-05-31T18:18:48.304Z,27.00
2018-05-31T18:21:19.048Z,27.00
2018-05-31T18:23:48.834Z,27.00
2018-05-31T18:26:18.672Z,27.00
2018-05-31T18:28:48.480Z,27.00
2018-05-31T18:31:19.061Z,27.00
2018-05-31T18:33:48.856Z,27.00
2018-05-31T18:36:18.648Z,27.00
2018-05-31T18:38:48.499Z,27.00
2018-05-31T18:41:18.334Z,27.00
2018-05-31T18:43:48.117Z,27.00
2018-05-31T18:46:18.032Z,26.90
2018-05-31T18:48:47.797Z,26.90
2018-05-31T18:51:22.396Z,26.90
2018-05-31T18:53:52.168Z,26.80
2018-05-31T18:56:21.947Z,26.90
2018-05-31T18:58:52.549Z,26.90
2018-05-31T19:01:22.365Z,26.90
2018-05-31T19:03:52.153Z,26.90
2018-05-31T19:06:21.961Z,26.90
2018-05-31T19:08:51.761Z,26.90
2018-05-31T19:11:21.590Z,26.90
2018-05-31T19:13:56.530Z,26.80
2018-05-31T19:16:26.419Z,26.80
2018-05-31T19:19:01.550Z,26.80
2018-05-31T19:21:31.364Z,26.80
2018-05-31T19:24:06.425Z,26.80
2018-05-31T19:26:36.216Z,26.80
2018-05-31T19:29:06.062Z,26.80
2018-05-31T19:31:35.835Z,26.80
2018-05-31T19:34:05.639Z,26.80
2018-05-31T19:36:40.609Z,26.70
2018-05-31T19:39:10.436Z,26.70
2018-05-31T19:41:40.251Z,26.70
2018-05-31T19:46:49.276Z,26.80
2018-05-31T19:49:19.046Z,26.80
2018-05-31T19:51:54.071Z,26.80
2018-05-31T19:54:23.880Z,26.80
2018-05-31T19:56:53.665Z,26.80
2018-05-31T19:59:28.698Z,26.80
2018-05-31T20:02:03.655Z,26.70
2018-05-31T20:04:34.276Z,26.70
2018-05-31T20:07:04.843Z,26.70
2018-05-31T20:09:34.638Z,26.70
2018-05-31T20:12:04.465Z,26.70
2018-05-31T20:14:34.259Z,26.70
2018-05-31T20:17:04.056Z,26.70
2018-05-31T20:19:34.624Z,26.70
2018-05-31T20:22:05.168Z,26.70
2018-05-31T20:24:34.945Z,26.70
2018-05-31T20:27:04.736Z,26.70
2018-05-31T20:29:35.292Z,26.70
2018-05-31T20:32:05.077Z,26.70
2018-05-31T20:34:35.708Z,26.60
2018-05-31T20:37:06.267Z,26.70
2018-05-31T20:39:36.076Z,26.60
2018-05-31T20:42:05.844Z,26.60
2018-05-31T20:44:35.621Z,26.70
2018-05-31T20:47:05.446Z,26.70
2018-05-31T20:49:36.036Z,26.70
2018-05-31T20:52:05.812Z,26.70
2018-05-31T20:54:35.604Z,26.70
2018-05-31T20:57:05.436Z,26.60
2018-05-31T20:59:35.325Z,26.70
2018-05-31T21:02:05.110Z,26.60
2018-05-31T21:04:34.907Z,26.60
2018-05-31T21:07:04.684Z,26.60
2018-05-31T21:09:35.261Z,26.50
2018-05-31T21:12:05.106Z,26.50
2018-05-31T21:14:34.991Z,26.50
2018-05-31T21:17:04.753Z,26.50
2018-05-31T21:19:35.312Z,26.50
2018-05-31T21:22:05.087Z,26.50
2018-05-31T21:24:34.859Z,26.50
2018-05-31T21:27:04.716Z,26.50
2018-05-31T21:29:34.473Z,26.40
2018-05-31T21:32:04.288Z,26.40
2018-05-31T21:34:34.073Z,26.40
2018-05-31T21:37:04.662Z,26.30
2018-05-31T21:39:34.456Z,26.30
2018-05-31T21:42:04.265Z,26.30
2018-05-31T21:44:34.067Z,26.20
2018-05-31T21:47:03.881Z,26.20
2018-05-31T21:49:33.664Z,26.20
2018-05-31T21:52:03.471Z,26.10
2018-05-31T21:54:34.071Z,26.10
2018-05-31T21:57:03.869Z,26.10
2018-05-31T21:59:33.744Z,26.20
2018-05-31T22:02:03.685Z,26.20
2018-05-31T22:04:33.452Z,26.20
2018-05-31T22:07:04.029Z,26.30
2018-05-31T22:09:33.802Z,26.20
2018-05-31T22:12:03.599Z,26.30
2018-05-31T22:14:33.387Z,26.30
2018-05-31T22:17:04.102Z,26.30
2018-05-31T22:19:33.872Z,26.30
2018-05-31T22:22:03.700Z,26.30
2018-05-31T22:24:34.311Z,26.20
2018-05-31T22:27:04.117Z,26.20
2018-05-31T22:29:34.669Z,26.20
2018-05-31T22:32:04.465Z,26.20
2018-05-31T22:34:34.248Z,26.30
2018-05-31T22:37:04.049Z,26.30
2018-05-31T22:39:33.816Z,26.30
2018-05-31T22:42:03.576Z,26.30
2018-05-31T22:44:33.356Z,26.30
2018-05-31T22:47:03.154Z,26.30
2018-05-31T22:49:32.909Z,26.30
2018-05-31T22:52:02.719Z,26.40
2018-05-31T22:54:32.514Z,26.40
2018-05-31T22:57:02.274Z,26.30
2018-05-31T22:59:32.046Z,26.30
2018-05-31T23:02:01.836Z,26.30
2018-05-31T23:04:31.573Z,26.30
2018-05-31T23:07:01.369Z,26.30
2018-05-31T23:09:31.129Z,26.30
2018-05-31T23:12:01.663Z,26.30
2018-05-31T23:14:33.261Z,26.40
2018-05-31T23:17:03.034Z,26.30
2018-05-31T23:19:32.805Z,26.40
2018-05-31T23:22:02.601Z,26.50
2018-05-31T23:24:32.374Z,26.50
2018-05-31T23:27:02.178Z,26.50
2018-05-31T23:29:32.145Z,26.50
2018-05-31T23:32:01.932Z,26.50
2018-05-31T23:34:31.724Z,26.60
2018-05-31T23:37:01.509Z,26.70
2018-05-31T23:39:32.077Z,26.80
2018-05-31T23:42:01.883Z,26.80
2018-05-31T23:44:31.673Z,26.80
2018-05-31T23:47:02.257Z,26.90
2018-05-31T23:49:32.438Z,26.90
2018-05-31T23:52:02.455Z,27.00
2018-05-31T23:54:32.246Z,27.00
2018-05-31T23:57:02.806Z,27.10
2018-05-31T23:59:32.589Z,27.10
